Terminal Aerodrome Forecast
Issued by NWS

Home | Current Version | Previous Version | Graphics & Text | Print | Product List | Glossary On
Versions: 1 2 3 4 5 6 7 8 9 10 11 12 13 14 15 16
000
FTUS43 KBIS 241138
TAFMOT
TAF
KMOT 241138Z 2412/2512 17014KT P6SM FEW250
     FM241400 16019G27KT P6SM SCT200
     FM250100 16014KT P6SM BKN110
     FM250400 18010KT P6SM -SHRA OVC060
     FM250900 17007KT P6SM SCT070=

USA.gov is the U.S. government's official web portal to all federal, state and local government web resources and services.